CYBD

Bella Coola Airport

Bella Coola, , Canada
METAR CYBD 190100Z 26003KT 12SM -SHRA FEW048 OVC070 12/10 A3011 RMK SC2AS6 CVCTV CLD EMBD LAST STFD OBS/NEXT 191300UTC SLP200
Observed Flight Rules
Sep-19 @ 01:00 UTC (11 hours ago) Visual Flight Rules
Wind Visibility Clouds Conditions
260° at 3 knots 12 miles
  • Few at 4,800' AGL
  • Overcast at 7,000' AGL
  • Light Rain
Temperatures Readings
Current 12°C / 54°F
Dewpoint 10°C / 50°F
Humidity 88%
Altimeter 30.11" Hg
Pressure 1020 hPa
Elevation 35
METAR CYBD 190100Z 26003KT 12SM -SHRA FEW048 OVC070 12/10 A3011 RMK SC2AS6 CVCTV CLD EMBD LAST STFD OBS/NEXT 191300UTC SLP200
Observed Flight Rules
Sep-19 @ 01:00 UTC
(11 hours ago)
VFR
Wind Visibility
260° at 3 knots 12 miles
Clouds
  • Few at 4,800' AGL
  • Overcast at 7,000' AGL
Conditions
  • Light Rain
Temperature Dewpoint
12°C / 54°F 10°C / 50°F
Humidity Altimeter Pressure
88% 30.11" Hg 1020 hPa